Time;durP1;ratioP1;P1;durP2;ratioP2;P2;SDS_P1;SDS_P2;PMS_P1;PMS_P2;Temp;Humidity;BMP_temperature;BMP_pressure;BME280_temperature;BME280_humidity;BME280_pressure;Samples;Min_cycle;Max_cycle;Signal;HPM_P1;HPM_P2
2022/05/02 00:01:05;;;;;;;2.97;2.30;;;19.70;41.70;18.80;101750.00;;;;5042305;28;20038;-69
2022/05/02 00:03:51;;;;;;;3.58;2.55;;;19.70;41.80;18.70;101744.00;;;;5040041;28;20403;-69
2022/05/02 00:06:37;;;;;;;3.42;2.58;;;19.60;41.70;18.80;101749.00;;;;5037973;28;20048;-69
2022/05/02 00:09:23;;;;;;;3.88;2.40;;;19.60;41.70;18.70;101751.00;;;;5035006;28;20904;-69
2022/05/02 00:12:09;;;;;;;4.05;2.67;;;19.70;41.80;18.80;101753.00;;;;5026696;28;20044;-69
2022/05/02 00:14:55;;;;;;;3.33;2.20;;;19.60;41.70;18.70;101752.00;;;;5005091;28;20487;-69
2022/05/02 00:17:56;;;;;;;2.80;2.35;;;19.60;41.80;18.70;101747.00;;;;5040013;28;20037;-69
2022/05/02 00:20:42;;;;;;;3.67;2.40;;;19.60;41.70;18.70;101753.00;;;;5028354;28;20041;-69
2022/05/02 00:23:29;;;;;;;3.25;2.40;;;19.60;41.70;18.70;101743.00;;;;5030873;28;20442;-69
2022/05/02 00:26:15;;;;;;;2.45;2.10;;;19.60;41.80;18.70;101732.00;;;;5031438;28;20136;-68
2022/05/02 00:29:01;;;;;;;2.83;1.95;;;19.70;41.80;18.70;101736.00;;;;5032132;28;20041;-69
2022/05/02 00:31:47;;;;;;;3.30;2.38;;;19.60;41.80;18.70;101729.00;;;;5036667;28;20379;-69
2022/05/02 00:34:33;;;;;;;2.85;2.55;;;19.60;41.80;18.70;101731.00;;;;5034805;28;20080;-69
2022/05/02 00:37:20;;;;;;;3.15;2.15;;;19.60;41.80;18.70;101723.00;;;;5036570;28;20049;-68
2022/05/02 00:40:07;;;;;;;4.82;2.58;;;19.60;41.80;18.70;101735.00;;;;5031754;28;20183;-68
2022/05/02 00:42:53;;;;;;;4.32;2.40;;;19.60;41.80;18.70;101723.00;;;;5010885;28;20033;-68
2022/05/02 00:45:39;;;;;;;3.33;2.20;;;19.50;41.80;18.70;101728.00;;;;5021093;28;20040;-69
2022/05/02 00:48:26;;;;;;;3.15;2.40;;;19.60;41.80;18.70;101717.00;;;;5038265;28;20502;-68
2022/05/02 00:51:12;;;;;;;2.45;2.15;;;19.70;41.90;18.70;101721.00;;;;5017432;28;20036;-68
2022/05/02 00:53:58;;;;;;;2.25;2.05;;;19.60;41.90;18.70;101716.00;;;;5030550;28;20479;-68
2022/05/02 00:56:44;;;;;;;3.17;2.03;;;19.50;41.80;18.70;101720.00;;;;5034516;28;20038;-68
2022/05/02 00:59:30;;;;;;;2.50;2.25;;;19.50;41.90;18.70;101716.00;;;;5018038;28;20034;-69
2022/05/02 01:02:16;;;;;;;2.50;2.30;;;19.50;41.90;18.70;101720.00;;;;5034567;28;20216;-69
2022/05/02 01:05:02;;;;;;;2.40;2.20;;;19.60;41.90;18.70;101720.00;;;;5024890;28;20079;-68
2022/05/02 01:07:49;;;;;;;2.58;2.38;;;19.50;42.60;18.70;101724.00;;;;5030176;28;20049;-69
2022/05/02 01:10:36;;;;;;;3.47;2.58;;;19.50;41.90;18.70;101726.00;;;;5022829;28;20442;-68
2022/05/02 01:13:38;;;;;;;3.23;2.47;;;19.60;41.90;18.70;101722.00;;;;5003138;28;20319;-68
2022/05/02 01:16:26;;;;;;;3.08;2.42;;;19.50;41.90;18.70;101717.00;;;;5035140;28;20507;-68
2022/05/02 01:19:12;;;;;;;2.70;2.40;;;19.50;41.90;18.70;101722.00;;;;5019546;28;20041;-69
2022/05/02 01:21:58;;;;;;;2.63;2.22;;;19.50;41.90;18.60;101717.00;;;;5036561;28;20407;-68
2022/05/02 01:24:46;;;;;;;3.03;2.47;;;19.50;41.90;18.60;101712.00;;;;5033443;28;20505;-68
2022/05/02 01:27:32;;;;;;;2.60;2.40;;;19.50;41.90;18.60;101712.00;;;;5036881;28;20257;-69
2022/05/02 01:30:18;;;;;;;4.05;2.38;;;19.50;41.90;18.60;101704.00;;;;5034751;28;20056;-68
2022/05/02 01:33:05;;;;;;;3.10;2.40;;;19.50;41.90;18.60;101701.00;;;;5023440;28;20045;-68
2022/05/02 01:35:51;;;;;;;4.82;2.70;;;19.50;41.90;18.60;101702.00;;;;5033511;28;20057;-69
2022/05/02 01:38:41;;;;;;;3.97;2.50;;;19.50;41.90;18.60;101701.00;;;;5038485;28;20037;-68
2022/05/02 01:41:27;;;;;;;3.90;2.63;;;19.50;41.90;18.60;101706.00;;;;5010584;28;20538;-68
2022/05/02 01:44:13;;;;;;;2.83;2.58;;;19.50;42.00;18.60;101705.00;;;;5040534;28;20103;-69
2022/05/02 01:46:59;;;;;;;3.28;2.67;;;19.40;41.90;18.60;101696.00;;;;5037319;28;20411;-68
2022/05/02 01:49:45;;;;;;;3.13;2.55;;;19.50;42.00;18.60;101702.00;;;;5023364;28;20044;-68
2022/05/02 01:52:31;;;;;;;3.35;2.80;;;19.50;42.00;18.60;101702.00;;;;5042004;28;20524;-69
2022/05/02 01:55:17;;;;;;;3.03;2.72;;;19.50;42.00;18.60;101699.00;;;;5040206;28;20115;-68
2022/05/02 01:58:04;;;;;;;3.10;2.53;;;19.50;42.00;18.60;101695.00;;;;5036413;28;20426;-68
2022/05/02 02:00:50;;;;;;;3.05;2.75;;;19.50;42.00;18.60;101690.00;;;;5034304;28;20048;-69
2022/05/02 02:03:36;;;;;;;4.45;2.50;;;19.50;42.00;18.60;101687.00;;;;5018400;28;20053;-68
2022/05/02 02:06:22;;;;;;;3.17;2.60;;;19.50;42.10;18.60;101692.00;;;;5039337;28;20065;-69
2022/05/02 02:09:08;;;;;;;5.45;3.05;;;19.50;42.10;18.60;101685.00;;;;5038386;28;20052;-68
2022/05/02 02:11:55;;;;;;;3.13;2.47;;;19.40;42.00;18.60;101689.00;;;;5038331;28;20037;-69
2022/05/02 02:14:41;;;;;;;5.23;2.97;;;19.40;42.00;18.60;101687.00;;;;5035637;28;20774;-69
2022/05/02 02:17:27;;;;;;;4.57;2.95;;;19.40;42.00;18.60;101682.00;;;;5036651;28;20041;-69
2022/05/02 02:20:13;;;;;;;3.67;2.50;;;19.50;42.00;18.60;101685.00;;;;5038662;28;20053;-68
2022/05/02 02:22:59;;;;;;;3.20;2.83;;;19.40;41.90;18.60;101687.00;;;;5024247;28;20040;-69
2022/05/02 02:25:45;;;;;;;3.03;2.58;;;19.40;42.00;18.60;101687.00;;;;5007205;28;20045;-69
2022/05/02 02:28:32;;;;;;;4.25;2.83;;;19.40;42.00;18.60;101674.00;;;;5033588;28;20036;-68
2022/05/02 02:31:18;;;;;;;3.75;2.67;;;19.40;42.00;18.60;101677.00;;;;5023031;28;20056;-69
2022/05/02 02:34:04;;;;;;;3.03;2.40;;;19.40;42.00;18.60;101682.00;;;;5036495;28;20072;-68
2022/05/02 02:36:50;;;;;;;2.80;2.50;;;19.40;42.00;18.60;101684.00;;;;5036795;28;20030;-68
2022/05/02 02:39:36;;;;;;;3.00;2.70;;;19.50;42.10;18.60;101683.00;;;;5035802;28;20482;-68
2022/05/02 02:42:22;;;;;;;3.47;2.60;;;19.40;42.00;18.60;101689.00;;;;5034969;28;20049;-69
2022/05/02 02:45:09;;;;;;;3.75;2.92;;;19.40;42.00;18.60;101679.00;;;;5037788;28;20083;-68
2022/05/02 02:47:55;;;;;;;3.33;2.50;;;19.40;42.00;18.60;101682.00;;;;5030792;28;20046;-68
2022/05/02 02:50:41;;;;;;;3.58;2.70;;;19.40;42.00;18.50;101680.00;;;;5035701;28;20497;-68
2022/05/02 02:53:27;;;;;;;2.83;2.58;;;19.40;42.00;18.50;101679.00;;;;5036592;28;20064;-68
2022/05/02 02:56:13;;;;;;;4.57;2.85;;;19.40;42.00;18.50;101666.00;;;;5031516;28;20045;-68
2022/05/02 02:58:59;;;;;;;3.58;2.60;;;19.40;42.00;18.50;101663.00;;;;5039496;28;20036;-68
2022/05/02 03:01:46;;;;;;;4.13;2.70;;;19.40;42.10;18.50;101665.00;;;;5037012;28;20458;-68
2022/05/02 03:07:38;;;;;;;3.22;2.75;;;19.40;42.10;18.50;101660.00;;;;5025828;28;20489;-68
2022/05/02 03:10:25;;;;;;;3.28;2.67;;;19.40;42.10;18.50;101658.00;;;;5024420;28;20060;-68
2022/05/02 03:13:11;;;;;;;2.35;2.15;;;19.40;42.10;18.50;101655.00;;;;5018285;28;20049;-68
2022/05/02 03:15:57;;;;;;;3.67;2.95;;;19.40;42.10;18.50;101653.00;;;;5035004;28;20041;-68
2022/05/02 03:18:43;;;;;;;3.25;2.85;;;19.40;42.10;18.50;101659.00;;;;5036148;28;20625;-68
2022/05/02 03:21:29;;;;;;;2.58;2.38;;;19.40;42.10;18.50;101653.00;;;;5044955;28;20036;-68
2022/05/02 03:24:15;;;;;;;4.82;2.90;;;19.40;42.10;18.50;101652.00;;;;5036865;28;20525;-69
2022/05/02 03:27:02;;;;;;;3.35;3.05;;;19.40;42.10;18.50;101644.00;;;;5044606;28;20343;-68
2022/05/02 03:29:48;;;;;;;3.50;2.58;;;19.40;42.10;18.50;101651.00;;;;5032101;28;20045;-68
2022/05/02 03:32:34;;;;;;;4.60;3.08;;;19.30;42.10;18.50;101652.00;;;;5044546;28;20040;-68
2022/05/02 03:35:20;;;;;;;3.03;2.65;;;19.40;42.10;18.50;101646.00;;;;5036957;28;20042;-68
2022/05/02 03:38:06;;;;;;;3.15;2.85;;;19.40;42.10;18.50;101644.00;;;;5041373;28;20115;-68
2022/05/02 03:40:52;;;;;;;3.75;3.03;;;19.30;42.10;18.50;101646.00;;;;5045530;28;20095;-68
2022/05/02 03:43:38;;;;;;;4.38;2.95;;;19.30;42.10;18.50;101648.00;;;;5032732;28;20045;-68
2022/05/02 03:46:24;;;;;;;4.57;2.85;;;19.30;42.10;18.50;101647.00;;;;5047848;28;20307;-68
2022/05/02 03:49:10;;;;;;;4.22;2.72;;;19.30;42.10;18.50;101643.00;;;;5005318;28;20037;-68
2022/05/02 03:51:57;;;;;;;3.40;3.08;;;19.30;42.10;18.50;101649.00;;;;5035128;28;20384;-68
2022/05/02 03:54:43;;;;;;;3.88;2.60;;;19.40;42.20;18.50;101644.00;;;;5038117;28;20044;-68
2022/05/02 03:57:29;;;;;;;3.58;3.10;;;19.30;42.50;18.50;101651.00;;;;5031292;28;20563;-68
2022/05/02 04:00:15;;;;;;;3.80;2.65;;;19.30;42.10;18.40;101644.00;;;;5041257;28;20052;-68
2022/05/02 04:03:01;;;;;;;3.17;2.70;;;19.30;42.10;18.40;101651.00;;;;5031468;28;20538;-68
2022/05/02 04:05:48;;;;;;;4.35;2.95;;;19.30;42.10;18.40;101660.00;;;;5034757;28;20040;-68
2022/05/02 04:08:34;;;;;;;4.78;2.75;;;19.40;42.10;18.40;101646.00;;;;5040973;28;20435;-69
2022/05/02 04:11:20;;;;;;;3.08;2.65;;;19.30;42.10;18.40;101644.00;;;;5042808;28;20452;-69
2022/05/02 04:14:06;;;;;;;4.25;2.67;;;19.30;42.10;18.40;101644.00;;;;5042823;28;20049;-69
2022/05/02 04:16:52;;;;;;;4.55;2.60;;;19.30;42.10;18.40;101643.00;;;;5043766;28;20059;-68
2022/05/02 04:19:38;;;;;;;4.47;2.85;;;19.30;42.10;18.40;101644.00;;;;5033590;28;20041;-68
2022/05/02 04:22:24;;;;;;;3.80;2.80;;;19.20;42.10;18.40;101644.00;;;;5043061;28;20114;-68
2022/05/02 04:25:10;;;;;;;4.00;3.10;;;19.30;42.10;18.40;101640.00;;;;5026002;28;20052;-68
2022/05/02 04:27:56;;;;;;;4.07;2.47;;;19.20;42.10;18.40;101647.00;;;;5034473;28;20475;-68
2022/05/02 04:30:42;;;;;;;3.58;2.60;;;19.30;42.10;18.40;101640.00;;;;5033426;28;20037;-68
2022/05/02 04:33:28;;;;;;;3.40;2.63;;;19.20;42.80;18.40;101647.00;;;;5030070;28;20490;-68
2022/05/02 04:36:14;;;;;;;3.25;2.50;;;19.20;42.10;18.40;101643.00;;;;5037404;28;20041;-68
2022/05/02 04:39:00;;;;;;;4.25;2.83;;;19.20;42.10;18.40;101649.00;;;;5034988;28;20037;-69
2022/05/02 04:41:46;;;;;;;3.10;2.70;;;19.20;42.10;18.40;101644.00;;;;5037644;28;20095;-68
2022/05/02 04:44:34;;;;;;;2.40;2.20;;;19.20;42.10;18.40;101634.00;;;;5036553;28;20045;-68
2022/05/02 04:47:20;;;;;;;;;;;19.20;42.10;18.30;101642.00;;;;5043476;28;20052;-68
2022/05/02 04:50:07;;;;;;;3.30;2.83;;;19.20;42.10;18.30;101638.00;;;;5032266;28;19924;-68
2022/05/02 04:52:53;;;;;;;4.27;3.37;;;19.20;42.00;18.30;101642.00;;;;5019303;28;20124;-68
2022/05/02 04:55:39;;;;;;;5.25;2.97;;;19.10;42.00;18.30;101645.00;;;;5042686;28;20520;-68
2022/05/02 04:58:25;;;;;;;3.35;2.67;;;19.20;42.10;18.30;101644.00;;;;5033555;28;20041;-68
2022/05/02 05:01:11;;;;;;;4.20;2.85;;;19.20;42.10;18.30;101638.00;;;;5035222;28;20048;-68
2022/05/02 05:03:57;;;;;;;3.08;2.78;;;19.20;42.10;18.30;101649.00;;;;5036228;28;20041;-69
2022/05/02 05:06:44;;;;;;;3.65;2.70;;;19.20;42.10;18.30;101655.00;;;;5044600;28;20041;-68
2022/05/02 05:09:30;;;;;;;3.45;2.90;;;19.20;42.10;18.30;101651.00;;;;5023049;28;20025;-68
2022/05/02 05:12:26;;;;;;;3.40;2.80;;;19.10;42.00;18.30;101649.00;;;;5022725;28;20052;-68
2022/05/02 05:19:20;;;;;;;3.00;2.60;;;19.20;42.10;18.30;101649.00;;;;5031160;28;20040;-69
2022/05/02 05:22:56;;;;;;;4.47;3.25;;;19.10;42.10;18.30;101652.00;;;;5023140;28;20049;-68
2022/05/02 05:26:44;;;;;;;3.83;2.92;;;19.20;42.20;18.30;101649.00;;;;5015474;28;20029;-68
2022/05/02 05:30:01;;;;;;;3.13;2.63;;;19.10;42.10;18.30;101659.00;;;;5022421;28;20045;-68
2022/05/02 05:33:30;;;;;;;4.05;2.97;;;19.10;42.20;18.20;101651.00;;;;5037785;28;20410;-68
2022/05/02 05:37:13;;;;;;;4.43;2.97;;;19.10;42.20;18.30;101644.00;;;;5037646;28;20047;-68
2022/05/02 05:40:21;;;;;;;3.28;2.67;;;19.10;42.20;18.30;101661.00;;;;5026504;28;20045;-68
2022/05/02 05:43:35;;;;;;;4.00;2.92;;;19.10;42.20;18.30;101657.00;;;;5026860;28;20558;-68
2022/05/02 05:47:32;;;;;;;5.28;3.17;;;19.10;42.30;18.30;101656.00;;;;5038568;28;20409;-69
2022/05/02 05:50:29;;;;;;;4.80;3.40;;;19.10;42.30;18.30;101660.00;;;;5003418;28;20133;-69
2022/05/02 05:53:33;;;;;;;5.25;2.92;;;19.10;42.30;18.30;101666.00;;;;5037102;28;20083;-68
2022/05/02 05:56:40;;;;;;;3.75;2.75;;;19.10;42.30;18.30;101669.00;;;;5038699;28;20045;-68
2022/05/02 06:00:01;;;;;;;4.13;3.08;;;19.10;42.30;18.30;101658.00;;;;5015430;28;20063;-69
2022/05/02 06:03:00;;;;;;;3.63;2.97;;;19.10;42.30;18.30;101666.00;;;;5035050;28;20044;-69
2022/05/02 06:05:47;;;;;;;3.80;2.90;;;19.10;42.30;18.30;101656.00;;;;5027809;28;20033;-68
2022/05/02 06:08:33;;;;;;;4.18;2.83;;;19.20;42.40;18.30;101659.00;;;;5019460;28;20107;-68
2022/05/02 06:11:19;;;;;;;3.53;2.63;;;19.20;42.40;18.30;101652.00;;;;5014659;28;20276;-68
2022/05/02 06:14:05;;;;;;;4.35;2.90;;;19.20;42.40;18.30;101660.00;;;;5023392;28;20490;-69
2022/05/02 06:19:57;;;;;;;3.88;2.80;;;19.20;42.40;18.30;101655.00;;;;5010996;28;20039;-68
2022/05/02 06:22:43;;;;;;;3.13;2.85;;;19.20;42.40;18.40;101660.00;;;;5028934;28;20033;-68
2022/05/02 06:25:30;;;;;;;5.10;2.80;;;19.20;42.40;18.40;101659.00;;;;5024227;28;20056;-68
2022/05/02 06:28:16;;;;;;;5.93;2.90;;;19.20;42.30;18.40;101655.00;;;;5009083;28;20510;-68
2022/05/02 06:31:02;;;;;;;3.22;2.72;;;19.20;42.30;18.40;101653.00;;;;5014274;28;20044;-69
2022/05/02 06:33:49;;;;;;;2.92;2.40;;;19.30;42.40;18.40;101649.00;;;;5037261;28;20198;-68
2022/05/02 06:37:21;;;;;;;6.47;3.40;;;19.20;42.30;18.40;101655.00;;;;5036304;28;20561;-68
2022/05/02 06:40:31;;;;;;;3.30;2.60;;;19.30;42.30;18.40;101650.00;;;;5021349;28;20529;-68
2022/05/02 06:43:32;;;;;;;4.72;2.72;;;19.30;42.30;18.40;101645.00;;;;5017685;28;20076;-68
2022/05/02 06:46:20;;;;;;;4.38;2.75;;;19.30;42.30;18.40;101646.00;;;;5022689;28;20400;-68
2022/05/02 06:49:11;;;;;;;5.43;2.70;;;19.30;42.30;18.40;101643.00;;;;5034769;28;20040;-68
2022/05/02 06:51:58;;;;;;;2.75;2.38;;;19.40;42.30;18.40;101644.00;;;;5023544;28;20103;-68
2022/05/02 06:55:10;;;;;;;3.63;2.28;;;19.30;42.30;18.40;101646.00;;;;5037668;28;20049;-68
2022/05/02 06:58:42;;;;;;;2.30;2.10;;;19.30;42.30;18.40;101642.00;;;;5033853;28;20066;-68
2022/05/02 07:01:48;;;;;;;3.88;2.42;;;19.30;42.30;18.40;101640.00;;;;5037200;28;20095;-69
2022/05/02 07:04:46;;;;;;;2.95;2.60;;;19.30;42.20;18.40;101650.00;;;;5027538;28;20063;-68
2022/05/02 07:08:05;;;;;;;6.60;2.65;;;19.30;42.20;18.40;101640.00;;;;5016608;28;20135;-68
2022/05/02 07:10:55;;;;;;;;;;;19.40;42.30;18.40;101640.00;;;;5038392;28;20037;-69
2022/05/02 07:14:07;;;;;;;2.42;2.08;;;19.40;42.20;18.40;101642.00;;;;5022953;28;20392;-68
2022/05/02 07:16:54;;;;;;;3.22;2.05;;;19.40;42.20;18.40;101643.00;;;;5022557;28;20072;-68
2022/05/02 07:20:05;;;;;;;3.37;2.30;;;19.40;42.20;18.40;101635.00;;;;5037360;28;20469;-68
2022/05/02 07:23:28;;;;;;;2.45;2.10;;;19.40;42.20;18.40;101635.00;;;;5025417;28;20112;-68
2022/05/02 07:26:15;;;;;;;2.53;2.05;;;19.40;42.20;18.40;101641.00;;;;5020272;28;20119;-68
2022/05/02 07:29:01;;;;;;;2.45;2.05;;;19.40;42.10;18.50;101642.00;;;;5021435;28;20459;-68
2022/05/02 07:31:47;;;;;;;4.40;2.28;;;19.40;42.10;18.50;101641.00;;;;5012904;28;20262;-68
2022/05/02 07:34:36;;;;;;;2.45;2.20;;;19.40;42.10;18.50;101640.00;;;;5025070;28;20406;-68
2022/05/02 07:37:22;;;;;;;2.38;2.00;;;19.40;42.00;18.50;101641.00;;;;5038351;28;20399;-68
2022/05/02 07:40:11;;;;;;;2.92;1.98;;;19.40;42.00;18.50;101640.00;;;;5022257;28;20052;-68
2022/05/02 07:42:57;;;;;;;2.20;1.77;;;19.40;42.00;18.50;101651.00;;;;5008612;28;20408;-68
2022/05/02 07:45:43;;;;;;;2.25;2.05;;;19.40;41.90;18.50;101650.00;;;;5025649;28;20118;-68
2022/05/02 07:48:30;;;;;;;3.08;1.55;;;19.40;41.80;18.50;101640.00;;;;5037398;28;20055;-68
2022/05/02 07:51:17;;;;;;;3.60;1.67;;;19.40;41.80;18.50;101639.00;;;;5024361;28;20045;-68
2022/05/02 07:54:03;;;;;;;2.95;2.05;;;19.40;41.80;18.50;101636.00;;;;4994447;28;20045;-68
2022/05/02 07:57:02;;;;;;;2.80;1.80;;;19.40;41.70;18.50;101638.00;;;;5010640;28;20033;-68
2022/05/02 07:59:53;;;;;;;3.25;1.60;;;19.40;41.70;18.50;101637.00;;;;5019894;28;20053;-68
2022/05/02 08:02:39;;;;;;;3.25;1.77;;;19.50;41.70;18.50;101641.00;;;;5009047;28;20365;-68
2022/05/02 08:05:27;;;;;;;2.17;1.77;;;19.50;41.80;18.50;101635.00;;;;5031982;28;20043;-68
2022/05/02 08:08:18;;;;;;;2.00;1.80;;;19.50;41.70;18.50;101637.00;;;;5019324;28;20073;-67
2022/05/02 08:11:26;;;;;;;3.30;2.05;;;19.50;41.70;18.50;101635.00;;;;5007878;28;20045;-68
2022/05/02 08:14:47;;;;;;;2.03;1.60;;;19.50;41.60;18.50;101639.00;;;;5033953;28;20052;-68
2022/05/02 08:17:57;;;;;;;2.13;1.48;;;19.50;41.60;18.50;101626.00;;;;5033825;28;20133;-68
2022/05/02 08:20:55;;;;;;;1.83;1.60;;;19.50;41.60;18.50;101625.00;;;;5017932;28;20048;-68
2022/05/02 08:28:02;;;;;;;2.78;1.45;;;19.50;41.60;18.50;101623.00;;;;5037734;28;20049;-68
2022/05/02 08:31:41;;;;;;;2.55;1.75;;;19.50;41.60;18.50;101634.00;;;;5024436;28;20047;-68
2022/05/02 08:34:39;;;;;;;2.95;1.65;;;19.50;41.60;18.50;101633.00;;;;4971278;28;20048;-68
2022/05/02 08:37:34;;;;;;;3.97;1.90;;;19.50;41.60;18.50;101627.00;;;;5021678;28;20048;-68
2022/05/02 08:40:20;;;;;;;2.58;1.75;;;19.50;41.60;18.50;101623.00;;;;5036861;28;20037;-68
2022/05/02 08:43:40;;;;;;;2.65;1.50;;;19.50;41.60;18.50;101631.00;;;;5035766;28;20041;-68
2022/05/02 08:46:56;;;;;;;;;;;19.50;41.60;18.50;101632.00;;;;5034140;28;20504;-68
2022/05/02 08:50:23;;;;;;;2.67;1.70;;;19.50;41.60;18.50;101629.00;;;;5025282;28;19917;-68
2022/05/02 08:53:34;;;;;;;2.70;1.55;;;19.50;41.50;18.50;101626.00;;;;5026745;28;20037;-69
2022/05/02 08:57:12;;;;;;;2.38;1.73;;;19.50;41.50;18.50;101630.00;;;;5035764;28;20045;-68
2022/05/02 09:00:09;;;;;;;2.67;1.35;;;19.50;41.50;18.50;101627.00;;;;4997686;28;20038;-68
2022/05/02 09:03:33;;;;;;;2.58;1.70;;;19.50;41.50;18.50;101615.00;;;;4995391;28;20034;-68
2022/05/02 09:07:04;;;;;;;1.30;1.20;;;19.60;41.60;18.50;101621.00;;;;5040199;28;20124;-68
2022/05/02 09:10:20;;;;;;;1.67;1.58;;;19.50;41.50;18.50;101608.00;;;;5036813;28;20037;-68
2022/05/02 09:13:19;;;;;;;1.65;1.45;;;19.50;41.50;18.50;101616.00;;;;5018172;28;20506;-68
2022/05/02 09:16:47;;;;;;;4.53;1.80;;;19.50;41.50;18.50;101605.00;;;;5022527;28;20064;-68
2022/05/02 09:20:15;;;;;;;1.92;1.27;;;19.50;41.50;18.50;101603.00;;;;5019806;28;20044;-68
2022/05/02 09:23:34;;;;;;;1.25;1.08;;;19.50;41.50;18.50;101606.00;;;;5023952;28;20173;-68
2022/05/02 09:27:10;;;;;;;2.53;1.23;;;19.50;41.40;18.50;101606.00;;;;5035321;28;20080;-68
2022/05/02 09:30:19;;;;;;;2.63;1.40;;;19.50;41.50;18.60;101608.00;;;;5021343;28;20057;-68
2022/05/02 09:33:27;;;;;;;5.95;1.50;;;19.50;41.50;18.60;101602.00;;;;5026954;28;20041;-68
2022/05/02 09:36:24;;;;;;;6.38;1.80;;;19.50;41.40;18.60;101603.00;;;;5034582;28;20052;-68
2022/05/02 09:39:24;;;;;;;3.80;1.90;;;19.50;41.40;18.60;101597.00;;;;5018546;28;20471;-68
2022/05/02 09:42:45;;;;;;;2.25;1.48;;;19.50;41.40;18.60;101592.00;;;;5009499;28;20478;-68
2022/05/02 09:52:15;;;;;;;2.15;1.40;;;19.60;41.50;18.60;101575.00;;;;5041124;28;20041;-68
2022/05/02 09:58:56;;;;;;;1.65;1.27;;;19.50;41.40;18.60;101578.00;;;;4953986;28;20042;-69
2022/05/02 10:01:46;;;;;;;1.70;1.30;;;19.60;41.50;18.60;101584.00;;;;5026958;28;20033;-68
2022/05/02 10:04:32;;;;;;;1.80;1.48;;;19.60;41.50;18.60;101575.00;;;;5011069;28;20040;-68
2022/05/02 10:07:23;;;;;;;2.03;1.40;;;19.60;41.50;18.60;101581.00;;;;5036391;28;20049;-68
2022/05/02 10:10:49;;;;;;;2.25;1.50;;;19.60;41.50;18.60;101574.00;;;;5029581;28;20043;-68
2022/05/02 10:14:24;;;;;;;2.70;1.67;;;19.60;41.50;18.60;101572.00;;;;5017976;28;20126;-69
2022/05/02 10:17:13;;;;;;;1.58;1.25;;;19.60;41.50;18.60;101575.00;;;;5038138;28;20074;-68
2022/05/02 10:20:11;;;;;;;1.58;1.35;;;19.60;41.50;18.60;101568.00;;;;5024979;28;20281;-68
2022/05/02 10:23:15;;;;;;;2.87;1.77;;;19.60;41.50;18.60;101580.00;;;;5038833;28;20034;-68
2022/05/02 10:26:50;;;;;;;2.50;1.38;;;19.60;41.50;18.60;101570.00;;;;5037260;28;20271;-69
2022/05/02 10:30:11;;;;;;;4.07;1.65;;;19.60;41.50;18.70;101574.00;;;;5023888;28;20069;-69
2022/05/02 10:32:57;;;;;;;2.10;1.48;;;19.70;41.50;18.70;101565.00;;;;5023080;28;20037;-69
2022/05/02 10:35:46;;;;;;;2.13;1.63;;;19.70;42.20;18.70;101552.00;;;;5013055;28;20098;-69
2022/05/02 10:38:33;;;;;;;2.10;1.63;;;19.70;41.50;18.70;101549.00;;;;5035618;28;20189;-68
2022/05/02 10:41:34;;;;;;;1.58;1.23;;;19.60;41.50;18.70;101552.00;;;;5009696;28;20048;-68
2022/05/02 10:44:21;;;;;;;2.38;1.77;;;19.70;41.50;18.70;101561.00;;;;5010572;28;20053;-68
2022/05/02 10:47:07;;;;;;;3.75;1.80;;;19.70;41.60;18.70;101556.00;;;;5011531;28;20061;-69
2022/05/02 10:49:53;;;;;;;1.98;1.58;;;19.70;41.60;18.70;101565.00;;;;5025885;28;20042;-69
2022/05/02 10:52:49;;;;;;;4.07;1.83;;;19.70;41.60;18.70;101553.00;;;;5042156;28;20041;-69
2022/05/02 10:55:46;;;;;;;3.03;1.77;;;19.70;41.50;18.70;101552.00;;;;5021399;28;20234;-68
2022/05/02 10:58:34;;;;;;;3.55;2.03;;;19.70;41.50;18.70;101545.00;;;;5009336;28;20041;-68
2022/05/02 11:01:57;;;;;;;2.83;1.42;;;19.80;41.60;18.70;101548.00;;;;5024471;28;20470;-68
2022/05/02 11:05:31;;;;;;;3.88;1.50;;;19.80;41.50;18.70;101539.00;;;;5037706;28;20051;-68
2022/05/02 11:08:22;;;;;;;2.03;1.73;;;19.80;41.50;18.70;101538.00;;;;4960181;28;20069;-68
2022/05/02 11:11:08;;;;;;;2.47;1.67;;;19.80;41.50;18.70;101533.00;;;;5027097;28;20124;-68
2022/05/02 11:14:03;;;;;;;3.03;1.90;;;19.80;41.50;18.70;101530.00;;;;5011767;28;20041;-69
2022/05/02 11:17:23;;;;;;;3.47;1.88;;;19.80;41.50;18.80;101529.00;;;;5026225;28;20117;-69
2022/05/02 11:23:45;;;;;;;2.78;1.80;;;19.80;41.60;18.70;101528.00;;;;5029491;28;20102;-68
2022/05/02 11:26:56;;;;;;;3.65;1.88;;;19.80;41.50;18.80;101530.00;;;;5035170;28;20094;-68
2022/05/02 11:30:07;;;;;;;2.55;1.80;;;19.70;41.50;18.80;101521.00;;;;5013746;28;20560;-69
2022/05/02 11:33:14;;;;;;;2.80;1.70;;;19.80;41.60;18.80;101521.00;;;;5039434;28;20084;-68
2022/05/02 11:36:01;;;;;;;1.80;1.40;;;19.80;41.60;18.80;101514.00;;;;5041847;28;20122;-68
2022/05/02 11:38:59;;;;;;;1.77;1.63;;;19.80;41.60;18.80;101509.00;;;;5010306;28;20350;-68
2022/05/02 11:41:45;;;;;;;2.50;1.67;;;19.80;41.60;18.80;101511.00;;;;5016862;28;20124;-68
2022/05/02 11:44:33;;;;;;;3.15;2.03;;;19.80;41.60;18.80;101509.00;;;;5014190;28;20052;-69
2022/05/02 11:47:56;;;;;;;1.85;1.55;;;19.80;41.50;18.80;101505.00;;;;5039231;28;20083;-68
2022/05/02 11:50:49;;;;;;;3.17;2.08;;;19.80;41.60;18.80;101500.00;;;;5030736;28;20182;-69
2022/05/02 11:53:36;;;;;;;2.22;1.88;;;19.90;41.70;18.80;101502.00;;;;5033876;28;20825;-69
2022/05/02 11:56:22;;;;;;;2.00;1.67;;;19.90;41.60;18.80;101490.00;;;;5023640;28;20725;-68
2022/05/02 11:59:12;;;;;;;3.33;2.08;;;19.90;41.70;18.80;101493.00;;;;5011780;28;20048;-68
2022/05/02 12:02:03;;;;;;;2.80;1.85;;;20.00;41.80;18.80;101496.00;;;;5022472;28;20033;-68
2022/05/02 12:04:49;;;;;;;3.08;2.22;;;19.90;41.70;18.80;101500.00;;;;5025515;28;20733;-68
2022/05/02 12:07:35;;;;;;;5.88;3.00;;;19.90;41.70;18.80;101493.00;;;;5004939;28;20072;-68
2022/05/02 12:10:50;;;;;;;3.92;2.22;;;19.90;41.70;18.80;101494.00;;;;5018120;28;20559;-68
2022/05/02 12:13:45;;;;;;;2.95;2.45;;;19.90;41.70;18.80;101494.00;;;;5036269;28;20044;-68
2022/05/02 12:16:33;;;;;;;2.65;2.00;;;20.00;41.70;18.90;101491.00;;;;5033584;28;20037;-68
2022/05/02 12:19:30;;;;;;;2.60;2.30;;;20.00;41.70;18.90;101493.00;;;;5008389;28;20123;-68
2022/05/02 12:22:17;;;;;;;2.50;2.28;;;20.00;41.70;18.90;101481.00;;;;5034452;28;20038;-69
2022/05/02 12:25:04;;;;;;;2.13;1.90;;;20.00;41.60;18.90;101492.00;;;;5007951;28;20053;-68
2022/05/02 12:27:50;;;;;;;3.87;2.50;;;20.00;41.70;18.90;101489.00;;;;5020557;28;20710;-68
2022/05/02 12:30:39;;;;;;;2.60;1.73;;;20.00;41.60;18.90;101484.00;;;;5024347;28;20131;-69
2022/05/02 12:33:25;;;;;;;3.13;2.25;;;20.00;41.60;18.90;101476.00;;;;5012410;28;20037;-68
2022/05/02 12:36:17;;;;;;;2.33;2.13;;;20.00;41.60;18.90;101486.00;;;;5025919;28;20045;-69
2022/05/02 12:39:06;;;;;;;4.07;2.00;;;20.00;41.60;18.90;101487.00;;;;5039916;28;20049;-69
2022/05/02 12:42:15;;;;;;;2.33;1.92;;;20.00;41.60;18.90;101475.00;;;;5032025;28;20283;-69
2022/05/02 12:45:10;;;;;;;2.75;2.20;;;20.00;41.60;18.90;101473.00;;;;5036310;28;20501;-69
2022/05/02 12:48:00;;;;;;;2.67;1.80;;;20.00;41.60;18.90;101475.00;;;;5025464;28;20520;-68
2022/05/02 12:50:46;;;;;;;3.65;2.13;;;20.10;41.60;18.90;101475.00;;;;5041422;28;20128;-68
2022/05/02 13:00:32;;;;;;;5.32;2.10;;;20.10;41.50;18.90;101468.00;;;;5042653;28;20044;-68
2022/05/02 13:03:23;;;;;;;2.40;1.92;;;20.10;41.50;18.90;101461.00;;;;5024901;28;20558;-69
2022/05/02 13:06:10;;;;;;;2.97;2.10;;;20.10;41.50;18.90;101462.00;;;;5029272;28;20399;-68
2022/05/02 13:09:14;;;;;;;2.63;1.98;;;20.10;41.50;18.90;101462.00;;;;5020487;28;20041;-69
2022/05/02 13:12:10;;;;;;;3.05;2.28;;;20.10;41.60;19.00;101464.00;;;;5031810;28;20037;-69
2022/05/02 13:14:59;;;;;;;3.38;2.17;;;20.10;41.60;19.00;101451.00;;;;5000604;28;20037;-68
2022/05/02 13:17:46;;;;;;;3.15;2.40;;;20.10;41.60;19.00;101449.00;;;;5024985;28;20037;-69
2022/05/02 13:20:32;;;;;;;2.67;2.45;;;20.10;41.60;19.00;101451.00;;;;5023165;28;20041;-68
2022/05/02 13:23:18;;;;;;;2.90;2.28;;;20.10;41.60;19.00;101451.00;;;;5034702;28;20423;-68